sensor_id;sensor_type;location;lat;lon;timestamp;temperature;humidity
14119;DHT22;7138;49.246;9.100;2023-04-25T00:00:01;7.30;99.90
14119;DHT22;7138;49.246;9.100;2023-04-25T00:02:28;7.30;99.90
14119;DHT22;7138;49.246;9.100;2023-04-25T00:04:54;7.30;99.90
14119;DHT22;7138;49.246;9.100;2023-04-25T00:07:24;7.20;99.90
14119;DHT22;7138;49.246;9.100;2023-04-25T00:09:50;7.20;99.90
14119;DHT22;7138;49.246;9.100;2023-04-25T00:12:18;7.20;99.90
14119;DHT22;7138;49.246;9.100;2023-04-25T00:14:43;7.20;99.90
14119;DHT22;7138;49.246;9.100;2023-04-25T00:17:10;7.20;99.90
14119;DHT22;7138;49.246;9.100;2023-04-25T00:19:36;7.20;99.90
14119;DHT22;7138;49.246;9.100;2023-04-25T00:22:03;7.20;99.90
14119;DHT22;7138;49.246;9.100;2023-04-25T00:24:31;7.20;99.90
14119;DHT22;7138;49.246;9.100;2023-04-25T00:26:56;7.20;99.90
14119;DHT22;7138;49.246;9.100;2023-04-25T00:29:23;7.20;99.90
14119;DHT22;7138;49.246;9.100;2023-04-25T00:31:49;7.10;99.90
14119;DHT22;7138;49.246;9.100;2023-04-25T00:34:15;7.10;99.90
14119;DHT22;7138;49.246;9.100;2023-04-25T00:36:41;7.20;99.90
14119;DHT22;7138;49.246;9.100;2023-04-25T00:39:07;7.20;99.90
14119;DHT22;7138;49.246;9.100;2023-04-25T00:41:33;7.10;99.90
14119;DHT22;7138;49.246;9.100;2023-04-25T00:43:59;7.10;99.90
14119;DHT22;7138;49.246;9.100;2023-04-25T00:46:27;7.10;99.90
14119;DHT22;7138;49.246;9.100;2023-04-25T00:48:54;7.10;99.90
14119;DHT22;7138;49.246;9.100;2023-04-25T00:51:20;7.10;99.90
14119;DHT22;7138;49.246;9.100;2023-04-25T00:53:47;7.10;99.90
14119;DHT22;7138;49.246;9.100;2023-04-25T00:56:15;7.10;99.90
14119;DHT22;7138;49.246;9.100;2023-04-25T00:58:41;7.10;99.90
14119;DHT22;7138;49.246;9.100;2023-04-25T01:01:08;7.10;99.90
14119;DHT22;7138;49.246;9.100;2023-04-25T01:03:38;7.10;99.90
14119;DHT22;7138;49.246;9.100;2023-04-25T01:06:08;7.10;99.90
14119;DHT22;7138;49.246;9.100;2023-04-25T01:08:36;7.00;99.90
14119;DHT22;7138;49.246;9.100;2023-04-25T01:11:02;7.00;99.90
14119;DHT22;7138;49.246;9.100;2023-04-25T01:13:29;7.00;99.90
14119;DHT22;7138;49.246;9.100;2023-04-25T01:15:55;7.00;99.90
14119;DHT22;7138;49.246;9.100;2023-04-25T01:18:21;7.00;99.90
14119;DHT22;7138;49.246;9.100;2023-04-25T01:20:51;7.00;99.90
14119;DHT22;7138;49.246;9.100;2023-04-25T01:23:19;7.00;99.90
14119;DHT22;7138;49.246;9.100;2023-04-25T01:25:47;7.00;99.90
14119;DHT22;7138;49.246;9.100;2023-04-25T01:28:13;7.00;99.90
14119;DHT22;7138;49.246;9.100;2023-04-25T01:30:40;7.00;99.90
14119;DHT22;7138;49.246;9.100;2023-04-25T01:33:07;7.00;99.90
14119;DHT22;7138;49.246;9.100;2023-04-25T01:35:34;7.00;99.90
14119;DHT22;7138;49.246;9.100;2023-04-25T01:38:00;6.90;99.90
14119;DHT22;7138;49.246;9.100;2023-04-25T01:40:28;6.90;99.90
14119;DHT22;7138;49.246;9.100;2023-04-25T01:42:54;6.90;99.90
14119;DHT22;7138;49.246;9.100;2023-04-25T01:45:20;6.90;99.90
14119;DHT22;7138;49.246;9.100;2023-04-25T01:47:46;6.80;99.90
14119;DHT22;7138;49.246;9.100;2023-04-25T01:50:16;6.80;99.90
14119;DHT22;7138;49.246;9.100;2023-04-25T01:52:43;6.90;99.90
14119;DHT22;7138;49.246;9.100;2023-04-25T01:55:09;6.80;99.90
14119;DHT22;7138;49.246;9.100;2023-04-25T01:57:36;6.90;99.90
14119;DHT22;7138;49.246;9.100;2023-04-25T02:00:05;6.90;99.90
14119;DHT22;7138;49.246;9.100;2023-04-25T02:02:34;6.90;99.90
14119;DHT22;7138;49.246;9.100;2023-04-25T02:05:00;6.80;99.90
14119;DHT22;7138;49.246;9.100;2023-04-25T02:07:26;6.90;99.90
14119;DHT22;7138;49.246;9.100;2023-04-25T02:09:52;6.90;99.90
14119;DHT22;7138;49.246;9.100;2023-04-25T02:12:18;6.90;99.90
14119;DHT22;7138;49.246;9.100;2023-04-25T02:14:45;6.90;99.90
14119;DHT22;7138;49.246;9.100;2023-04-25T02:17:11;6.90;99.90
14119;DHT22;7138;49.246;9.100;2023-04-25T02:19:38;6.90;99.90
14119;DHT22;7138;49.246;9.100;2023-04-25T02:22:04;6.90;99.90
14119;DHT22;7138;49.246;9.100;2023-04-25T02:24:29;6.90;99.90
14119;DHT22;7138;49.246;9.100;2023-04-25T02:26:57;7.00;99.90
14119;DHT22;7138;49.246;9.100;2023-04-25T02:29:23;6.90;99.90
14119;DHT22;7138;49.246;9.100;2023-04-25T02:31:50;6.90;99.90
14119;DHT22;7138;49.246;9.100;2023-04-25T02:34:16;6.90;99.90
14119;DHT22;7138;49.246;9.100;2023-04-25T02:36:42;6.90;99.90
14119;DHT22;7138;49.246;9.100;2023-04-25T02:39:07;6.90;99.90
14119;DHT22;7138;49.246;9.100;2023-04-25T02:41:33;6.80;99.90
14119;DHT22;7138;49.246;9.100;2023-04-25T02:43:59;6.80;99.90
14119;DHT22;7138;49.246;9.100;2023-04-25T02:46:25;6.80;99.90
14119;DHT22;7138;49.246;9.100;2023-04-25T02:48:52;6.90;99.90
14119;DHT22;7138;49.246;9.100;2023-04-25T02:51:18;6.80;99.90
14119;DHT22;7138;49.246;9.100;2023-04-25T02:53:44;6.80;99.90
14119;DHT22;7138;49.246;9.100;2023-04-25T02:56:10;6.80;99.90
14119;DHT22;7138;49.246;9.100;2023-04-25T02:58:36;6.80;99.90
14119;DHT22;7138;49.246;9.100;2023-04-25T03:01:02;6.80;99.90
14119;DHT22;7138;49.246;9.100;2023-04-25T03:03:27;6.80;99.90
14119;DHT22;7138;49.246;9.100;2023-04-25T03:05:55;6.80;99.90
14119;DHT22;7138;49.246;9.100;2023-04-25T03:08:20;6.80;99.90
14119;DHT22;7138;49.246;9.100;2023-04-25T03:10:46;6.80;99.90
14119;DHT22;7138;49.246;9.100;2023-04-25T03:13:13;6.80;99.90
14119;DHT22;7138;49.246;9.100;2023-04-25T03:15:38;6.90;99.90
14119;DHT22;7138;49.246;9.100;2023-04-25T03:18:04;6.90;99.90
14119;DHT22;7138;49.246;9.100;2023-04-25T03:20:30;6.90;99.90
14119;DHT22;7138;49.246;9.100;2023-04-25T03:22:57;6.80;99.90
14119;DHT22;7138;49.246;9.100;2023-04-25T03:25:23;6.90;99.90
14119;DHT22;7138;49.246;9.100;2023-04-25T03:27:49;6.90;99.90
14119;DHT22;7138;49.246;9.100;2023-04-25T03:30:15;6.80;99.90
14119;DHT22;7138;49.246;9.100;2023-04-25T03:32:41;6.80;99.90
14119;DHT22;7138;49.246;9.100;2023-04-25T03:35:07;6.80;99.90
14119;DHT22;7138;49.246;9.100;2023-04-25T03:37:34;6.80;99.90
14119;DHT22;7138;49.246;9.100;2023-04-25T03:40:01;6.80;99.90
14119;DHT22;7138;49.246;9.100;2023-04-25T03:42:28;6.80;99.90
14119;DHT22;7138;49.246;9.100;2023-04-25T03:44:53;6.80;99.90
14119;DHT22;7138;49.246;9.100;2023-04-25T03:47:19;6.80;99.90
14119;DHT22;7138;49.246;9.100;2023-04-25T03:49:45;6.80;99.90
14119;DHT22;7138;49.246;9.100;2023-04-25T03:52:11;6.70;99.90
14119;DHT22;7138;49.246;9.100;2023-04-25T03:54:37;6.80;99.90
14119;DHT22;7138;49.246;9.100;2023-04-25T03:57:04;6.80;99.90
14119;DHT22;7138;49.246;9.100;2023-04-25T03:59:30;6.70;99.90
14119;DHT22;7138;49.246;9.100;2023-04-25T04:01:56;6.70;99.90
14119;DHT22;7138;49.246;9.100;2023-04-25T04:04:22;6.80;99.90
14119;DHT22;7138;49.246;9.100;2023-04-25T04:06:48;6.80;99.90
14119;DHT22;7138;49.246;9.100;2023-04-25T04:09:14;6.70;99.90
14119;DHT22;7138;49.246;9.100;2023-04-25T04:11:40;6.70;99.90
14119;DHT22;7138;49.246;9.100;2023-04-25T04:14:08;6.60;99.90
14119;DHT22;7138;49.246;9.100;2023-04-25T04:16:35;6.60;99.90
14119;DHT22;7138;49.246;9.100;2023-04-25T04:19:01;6.60;99.90
14119;DHT22;7138;49.246;9.100;2023-04-25T04:21:27;6.60;99.90
14119;DHT22;7138;49.246;9.100;2023-04-25T04:23:53;6.60;99.90
14119;DHT22;7138;49.246;9.100;2023-04-25T04:26:19;6.60;99.90
14119;DHT22;7138;49.246;9.100;2023-04-25T04:28:48;6.60;99.90
14119;DHT22;7138;49.246;9.100;2023-04-25T04:31:17;6.50;99.90
14119;DHT22;7138;49.246;9.100;2023-04-25T04:33:45;6.60;99.90
14119;DHT22;7138;49.246;9.100;2023-04-25T04:36:11;6.50;99.90
14119;DHT22;7138;49.246;9.100;2023-04-25T04:38:37;6.50;99.90
14119;DHT22;7138;49.246;9.100;2023-04-25T04:41:03;6.60;99.90
14119;DHT22;7138;49.246;9.100;2023-04-25T04:43:29;6.50;99.90
14119;DHT22;7138;49.246;9.100;2023-04-25T04:45:55;6.60;99.90
14119;DHT22;7138;49.246;9.100;2023-04-25T04:48:23;6.60;99.90
14119;DHT22;7138;49.246;9.100;2023-04-25T04:50:49;6.60;99.90
14119;DHT22;7138;49.246;9.100;2023-04-25T04:53:15;6.60;99.90
14119;DHT22;7138;49.246;9.100;2023-04-25T04:55:41;6.60;99.90
14119;DHT22;7138;49.246;9.100;2023-04-25T04:58:07;6.60;99.90
14119;DHT22;7138;49.246;9.100;2023-04-25T05:00:33;6.60;99.90
14119;DHT22;7138;49.246;9.100;2023-04-25T05:02:59;6.60;99.90
14119;DHT22;7138;49.246;9.100;2023-04-25T05:05:27;6.60;99.90
14119;DHT22;7138;49.246;9.100;2023-04-25T05:07:52;6.60;99.90
14119;DHT22;7138;49.246;9.100;2023-04-25T05:10:19;6.60;99.90
14119;DHT22;7138;49.246;9.100;2023-04-25T05:12:45;6.60;99.90
14119;DHT22;7138;49.246;9.100;2023-04-25T05:15:11;6.60;99.90
14119;DHT22;7138;49.246;9.100;2023-04-25T05:17:37;6.60;99.90
14119;DHT22;7138;49.246;9.100;2023-04-25T05:20:05;6.70;99.90
14119;DHT22;7138;49.246;9.100;2023-04-25T05:22:33;6.60;99.90
14119;DHT22;7138;49.246;9.100;2023-04-25T05:24:59;6.70;99.90
14119;DHT22;7138;49.246;9.100;2023-04-25T05:27:25;6.60;99.90
14119;DHT22;7138;49.246;9.100;2023-04-25T05:29:51;6.60;99.90
14119;DHT22;7138;49.246;9.100;2023-04-25T05:32:18;6.60;99.90
14119;DHT22;7138;49.246;9.100;2023-04-25T05:34:44;6.70;99.90
14119;DHT22;7138;49.246;9.100;2023-04-25T05:37:09;6.70;99.90
14119;DHT22;7138;49.246;9.100;2023-04-25T05:39:37;6.70;99.90
14119;DHT22;7138;49.246;9.100;2023-04-25T05:42:03;6.70;99.90
14119;DHT22;7138;49.246;9.100;2023-04-25T05:44:29;6.70;99.90
14119;DHT22;7138;49.246;9.100;2023-04-25T05:46:55;6.80;99.90
14119;DHT22;7138;49.246;9.100;2023-04-25T05:49:21;6.80;99.90
14119;DHT22;7138;49.246;9.100;2023-04-25T05:51:47;6.80;99.90
14119;DHT22;7138;49.246;9.100;2023-04-25T05:54:13;6.90;99.90
14119;DHT22;7138;49.246;9.100;2023-04-25T05:56:40;7.00;99.90
14119;DHT22;7138;49.246;9.100;2023-04-25T05:59:06;7.00;99.90
14119;DHT22;7138;49.246;9.100;2023-04-25T06:01:32;7.00;99.90
14119;DHT22;7138;49.246;9.100;2023-04-25T06:03:57;6.90;99.90
14119;DHT22;7138;49.246;9.100;2023-04-25T06:06:23;7.00;99.90
14119;DHT22;7138;49.246;9.100;2023-04-25T06:08:49;7.10;99.90
14119;DHT22;7138;49.246;9.100;2023-04-25T06:11:15;7.20;99.90
14119;DHT22;7138;49.246;9.100;2023-04-25T06:13:43;7.40;99.90
14119;DHT22;7138;49.246;9.100;2023-04-25T06:16:08;7.30;99.90
14119;DHT22;7138;49.246;9.100;2023-04-25T06:18:34;7.50;99.90
14119;DHT22;7138;49.246;9.100;2023-04-25T06:21:00;7.50;99.90
14119;DHT22;7138;49.246;9.100;2023-04-25T06:23:26;7.60;99.90
14119;DHT22;7138;49.246;9.100;2023-04-25T06:25:52;7.70;99.90
14119;DHT22;7138;49.246;9.100;2023-04-25T06:28:18;7.70;99.90
14119;DHT22;7138;49.246;9.100;2023-04-25T06:30:46;7.80;99.90
14119;DHT22;7138;49.246;9.100;2023-04-25T06:33:11;7.80;99.90
14119;DHT22;7138;49.246;9.100;2023-04-25T06:35:37;8.00;99.90
14119;DHT22;7138;49.246;9.100;2023-04-25T06:38:03;7.90;99.90
14119;DHT22;7138;49.246;9.100;2023-04-25T06:40:29;7.90;99.90
14119;DHT22;7138;49.246;9.100;2023-04-25T06:42:55;8.00;99.90
14119;DHT22;7138;49.246;9.100;2023-04-25T06:45:20;8.10;99.90
14119;DHT22;7138;49.246;9.100;2023-04-25T06:47:48;8.00;99.90
14119;DHT22;7138;49.246;9.100;2023-04-25T06:50:13;8.30;99.90
14119;DHT22;7138;49.246;9.100;2023-04-25T06:52:39;8.20;99.90
14119;DHT22;7138;49.246;9.100;2023-04-25T06:55:06;8.00;99.90
14119;DHT22;7138;49.246;9.100;2023-04-25T06:57:32;8.00;99.90
14119;DHT22;7138;49.246;9.100;2023-04-25T06:59:58;8.10;99.90
14119;DHT22;7138;49.246;9.100;2023-04-25T07:02:24;8.20;99.90
14119;DHT22;7138;49.246;9.100;2023-04-25T07:04:51;8.20;99.90
14119;DHT22;7138;49.246;9.100;2023-04-25T07:07:17;8.20;99.90
14119;DHT22;7138;49.246;9.100;2023-04-25T07:09:43;8.00;99.90
14119;DHT22;7138;49.246;9.100;2023-04-25T07:12:08;8.30;99.90
14119;DHT22;7138;49.246;9.100;2023-04-25T07:14:34;8.50;99.90
14119;DHT22;7138;49.246;9.100;2023-04-25T07:17:00;8.70;99.90
14119;DHT22;7138;49.246;9.100;2023-04-25T07:19:26;8.50;99.90
14119;DHT22;7138;49.246;9.100;2023-04-25T07:21:56;8.40;99.90
14119;DHT22;7138;49.246;9.100;2023-04-25T07:24:22;8.50;99.90
14119;DHT22;7138;49.246;9.100;2023-04-25T07:26:48;8.60;99.90
14119;DHT22;7138;49.246;9.100;2023-04-25T07:29:13;8.60;99.90
14119;DHT22;7138;49.246;9.100;2023-04-25T07:31:39;8.50;99.90
14119;DHT22;7138;49.246;9.100;2023-04-25T07:34:05;8.60;99.90
14119;DHT22;7138;49.246;9.100;2023-04-25T07:36:31;8.50;99.90
14119;DHT22;7138;49.246;9.100;2023-04-25T07:38:58;8.50;99.90
14119;DHT22;7138;49.246;9.100;2023-04-25T07:41:24;8.60;99.90
14119;DHT22;7138;49.246;9.100;2023-04-25T07:43:50;8.60;99.90
14119;DHT22;7138;49.246;9.100;2023-04-25T07:46:16;8.50;99.90
14119;DHT22;7138;49.246;9.100;2023-04-25T07:48:41;8.60;99.90
14119;DHT22;7138;49.246;9.100;2023-04-25T07:51:07;8.60;99.90
14119;DHT22;7138;49.246;9.100;2023-04-25T07:53:33;8.60;99.90
14119;DHT22;7138;49.246;9.100;2023-04-25T07:56:01;8.80;99.90
14119;DHT22;7138;49.246;9.100;2023-04-25T07:58:27;8.80;99.90
14119;DHT22;7138;49.246;9.100;2023-04-25T08:00:53;8.60;99.90
14119;DHT22;7138;49.246;9.100;2023-04-25T08:03:19;8.70;99.90
14119;DHT22;7138;49.246;9.100;2023-04-25T08:05:45;8.70;99.90
14119;DHT22;7138;49.246;9.100;2023-04-25T08:08:11;8.80;99.90
14119;DHT22;7138;49.246;9.100;2023-04-25T08:10:37;8.80;99.90
14119;DHT22;7138;49.246;9.100;2023-04-25T08:13:04;8.80;99.90
14119;DHT22;7138;49.246;9.100;2023-04-25T08:15:30;8.70;99.90
14119;DHT22;7138;49.246;9.100;2023-04-25T08:17:56;8.60;99.90
14119;DHT22;7138;49.246;9.100;2023-04-25T08:20:22;8.70;99.90
14119;DHT22;7138;49.246;9.100;2023-04-25T08:22:48;8.60;99.90
14119;DHT22;7138;49.246;9.100;2023-04-25T08:25:14;8.60;99.90
14119;DHT22;7138;49.246;9.100;2023-04-25T08:27:40;8.60;99.90
14119;DHT22;7138;49.246;9.100;2023-04-25T08:30:08;8.90;99.90
14119;DHT22;7138;49.246;9.100;2023-04-25T08:32:35;8.80;99.90
14119;DHT22;7138;49.246;9.100;2023-04-25T08:35:04;8.90;99.90
14119;DHT22;7138;49.246;9.100;2023-04-25T08:37:30;8.90;99.90
14119;DHT22;7138;49.246;9.100;2023-04-25T08:39:55;8.90;99.90
14119;DHT22;7138;49.246;9.100;2023-04-25T08:42:22;8.80;99.90
14119;DHT22;7138;49.246;9.100;2023-04-25T08:44:50;8.80;99.90
14119;DHT22;7138;49.246;9.100;2023-04-25T08:47:22;8.90;99.90
14119;DHT22;7138;49.246;9.100;2023-04-25T08:49:49;9.20;99.90
14119;DHT22;7138;49.246;9.100;2023-04-25T08:52:20;9.20;99.90
14119;DHT22;7138;49.246;9.100;2023-04-25T08:54:48;9.30;99.90
14119;DHT22;7138;49.246;9.100;2023-04-25T08:57:15;9.40;99.90
14119;DHT22;7138;49.246;9.100;2023-04-25T08:59:42;9.60;99.90
14119;DHT22;7138;49.246;9.100;2023-04-25T09:02:11;9.80;99.90
14119;DHT22;7138;49.246;9.100;2023-04-25T09:04:42;9.90;99.90
14119;DHT22;7138;49.246;9.100;2023-04-25T09:07:08;9.70;99.90
14119;DHT22;7138;49.246;9.100;2023-04-25T09:09:34;9.70;99.90
14119;DHT22;7138;49.246;9.100;2023-04-25T09:12:01;9.70;99.90
14119;DHT22;7138;49.246;9.100;2023-04-25T09:14:27;9.80;99.90
14119;DHT22;7138;49.246;9.100;2023-04-25T09:17:01;9.50;99.90
14119;DHT22;7138;49.246;9.100;2023-04-25T09:19:29;9.50;99.90
14119;DHT22;7138;49.246;9.100;2023-04-25T09:21:59;9.40;99.90
14119;DHT22;7138;49.246;9.100;2023-04-25T09:24:35;9.50;99.90
14119;DHT22;7138;49.246;9.100;2023-04-25T09:27:06;9.50;99.90
14119;DHT22;7138;49.246;9.100;2023-04-25T09:29:35;9.40;99.90
14119;DHT22;7138;49.246;9.100;2023-04-25T09:32:14;9.50;99.90
14119;DHT22;7138;49.246;9.100;2023-04-25T09:34:43;9.60;99.90
14119;DHT22;7138;49.246;9.100;2023-04-25T09:37:11;10.00;99.90
14119;DHT22;7138;49.246;9.100;2023-04-25T09:39:44;10.10;99.90
14119;DHT22;7138;49.246;9.100;2023-04-25T09:42:11;9.80;99.90
14119;DHT22;7138;49.246;9.100;2023-04-25T09:44:37;10.00;99.90
14119;DHT22;7138;49.246;9.100;2023-04-25T09:47:10;10.10;99.90
14119;DHT22;7138;49.246;9.100;2023-04-25T09:49:39;10.00;99.90
14119;DHT22;7138;49.246;9.100;2023-04-25T09:52:06;10.00;99.90
14119;DHT22;7138;49.246;9.100;2023-04-25T09:54:34;10.10;99.90
14119;DHT22;7138;49.246;9.100;2023-04-25T09:57:08;10.00;99.90
14119;DHT22;7138;49.246;9.100;2023-04-25T09:59:39;10.10;99.90
14119;DHT22;7138;49.246;9.100;2023-04-25T10:02:08;10.70;99.90
14119;DHT22;7138;49.246;9.100;2023-04-25T10:04:35;10.80;99.90
14119;DHT22;7138;49.246;9.100;2023-04-25T10:07:05;10.60;99.90
14119;DHT22;7138;49.246;9.100;2023-04-25T10:09:36;10.80;99.90
14119;DHT22;7138;49.246;9.100;2023-04-25T10:12:03;10.70;99.90
14119;DHT22;7138;49.246;9.100;2023-04-25T10:14:31;10.90;99.90
14119;DHT22;7138;49.246;9.100;2023-04-25T10:16:57;10.80;99.90
14119;DHT22;7138;49.246;9.100;2023-04-25T10:19:25;10.80;99.90
14119;DHT22;7138;49.246;9.100;2023-04-25T10:21:54;10.50;99.90
14119;DHT22;7138;49.246;9.100;2023-04-25T10:24:24;10.50;99.90
14119;DHT22;7138;49.246;9.100;2023-04-25T10:26:53;10.90;99.90
14119;DHT22;7138;49.246;9.100;2023-04-25T10:29:25;11.60;99.90
14119;DHT22;7138;49.246;9.100;2023-04-25T10:31:51;12.30;99.90
14119;DHT22;7138;49.246;9.100;2023-04-25T10:34:18;12.40;99.90
14119;DHT22;7138;49.246;9.100;2023-04-25T10:36:52;12.30;99.90
14119;DHT22;7138;49.246;9.100;2023-04-25T10:39:22;11.90;99.90
14119;DHT22;7138;49.246;9.100;2023-04-25T10:41:56;11.70;99.90
14119;DHT22;7138;49.246;9.100;2023-04-25T10:44:26;11.90;99.90
14119;DHT22;7138;49.246;9.100;2023-04-25T10:46:54;12.10;99.90
14119;DHT22;7138;49.246;9.100;2023-04-25T10:49:32;12.80;99.90
14119;DHT22;7138;49.246;9.100;2023-04-25T10:52:25;13.00;99.90
14119;DHT22;7138;49.246;9.100;2023-04-25T10:54:53;13.20;99.90
14119;DHT22;7138;49.246;9.100;2023-04-25T10:57:29;12.90;99.90
14119;DHT22;7138;49.246;9.100;2023-04-25T10:59:59;13.00;99.90
14119;DHT22;7138;49.246;9.100;2023-04-25T11:02:26;13.20;99.90
14119;DHT22;7138;49.246;9.100;2023-04-25T11:04:53;12.90;99.90
14119;DHT22;7138;49.246;9.100;2023-04-25T11:07:26;13.00;99.90
14119;DHT22;7138;49.246;9.100;2023-04-25T11:10:00;13.00;99.90
14119;DHT22;7138;49.246;9.100;2023-04-25T11:12:31;12.50;99.90
14119;DHT22;7138;49.246;9.100;2023-04-25T11:15:01;12.60;99.90
14119;DHT22;7138;49.246;9.100;2023-04-25T11:17:29;12.40;99.90
14119;DHT22;7138;49.246;9.100;2023-04-25T11:19:55;12.50;99.90
14119;DHT22;7138;49.246;9.100;2023-04-25T11:22:22;12.30;99.90
14119;DHT22;7138;49.246;9.100;2023-04-25T11:24:48;12.60;99.90
14119;DHT22;7138;49.246;9.100;2023-04-25T11:27:14;12.70;99.90
14119;DHT22;7138;49.246;9.100;2023-04-25T11:29:41;12.50;99.90
14119;DHT22;7138;49.246;9.100;2023-04-25T11:32:07;11.80;99.90
14119;DHT22;7138;49.246;9.100;2023-04-25T11:34:34;11.70;99.90
14119;DHT22;7138;49.246;9.100;2023-04-25T11:37:03;11.60;99.90
14119;DHT22;7138;49.246;9.100;2023-04-25T11:39:29;11.30;99.90
14119;DHT22;7138;49.246;9.100;2023-04-25T11:41:55;11.60;99.90
14119;DHT22;7138;49.246;9.100;2023-04-25T11:44:22;12.00;99.90
14119;DHT22;7138;49.246;9.100;2023-04-25T11:46:49;12.20;99.90
14119;DHT22;7138;49.246;9.100;2023-04-25T11:49:15;12.20;99.90
14119;DHT22;7138;49.246;9.100;2023-04-25T11:51:45;12.40;99.90
14119;DHT22;7138;49.246;9.100;2023-04-25T11:54:12;11.90;99.90
14119;DHT22;7138;49.246;9.100;2023-04-25T11:56:41;11.30;99.90
14119;DHT22;7138;49.246;9.100;2023-04-25T11:59:07;11.00;99.90
14119;DHT22;7138;49.246;9.100;2023-04-25T12:01:34;10.90;99.90
14119;DHT22;7138;49.246;9.100;2023-04-25T12:04:12;10.80;99.90
14119;DHT22;7138;49.246;9.100;2023-04-25T12:06:39;10.80;99.90
14119;DHT22;7138;49.246;9.100;2023-04-25T12:09:08;10.90;99.90
14119;DHT22;7138;49.246;9.100;2023-04-25T12:11:41;11.10;99.90
14119;DHT22;7138;49.246;9.100;2023-04-25T12:14:08;11.20;99.90
14119;DHT22;7138;49.246;9.100;2023-04-25T12:16:41;11.40;99.90
14119;DHT22;7138;49.246;9.100;2023-04-25T12:19:07;11.80;99.90
14119;DHT22;7138;49.246;9.100;2023-04-25T12:21:34;11.50;99.90
14119;DHT22;7138;49.246;9.100;2023-04-25T12:24:10;11.10;99.90
14119;DHT22;7138;49.246;9.100;2023-04-25T12:26:48;10.60;99.90
14119;DHT22;7138;49.246;9.100;2023-04-25T12:29:17;10.70;99.90
14119;DHT22;7138;49.246;9.100;2023-04-25T12:31:43;10.50;99.90
14119;DHT22;7138;49.246;9.100;2023-04-25T12:34:10;10.40;99.90
14119;DHT22;7138;49.246;9.100;2023-04-25T12:36:37;10.40;99.90
14119;DHT22;7138;49.246;9.100;2023-04-25T12:39:04;10.60;99.90
14119;DHT22;7138;49.246;9.100;2023-04-25T12:41:30;10.70;99.90
14119;DHT22;7138;49.246;9.100;2023-04-25T12:43:56;10.90;99.90
14119;DHT22;7138;49.246;9.100;2023-04-25T12:46:22;11.60;99.90
14119;DHT22;7138;49.246;9.100;2023-04-25T12:48:51;12.60;99.90
14119;DHT22;7138;49.246;9.100;2023-04-25T12:51:17;12.50;99.90
14119;DHT22;7138;49.246;9.100;2023-04-25T12:53:44;11.90;99.90
14119;DHT22;7138;49.246;9.100;2023-04-25T12:56:10;11.90;99.90
14119;DHT22;7138;49.246;9.100;2023-04-25T12:58:36;11.60;99.90
14119;DHT22;7138;49.246;9.100;2023-04-25T13:01:02;11.20;99.90
14119;DHT22;7138;49.246;9.100;2023-04-25T13:03:28;11.60;99.90
14119;DHT22;7138;49.246;9.100;2023-04-25T13:05:54;12.00;99.90
14119;DHT22;7138;49.246;9.100;2023-04-25T13:08:20;12.00;99.90
14119;DHT22;7138;49.246;9.100;2023-04-25T13:10:47;11.60;99.90
14119;DHT22;7138;49.246;9.100;2023-04-25T13:13:13;11.20;99.90
14119;DHT22;7138;49.246;9.100;2023-04-25T13:15:39;11.20;99.90
14119;DHT22;7138;49.246;9.100;2023-04-25T13:18:05;11.50;99.90
14119;DHT22;7138;49.246;9.100;2023-04-25T13:20:30;12.20;99.90
14119;DHT22;7138;49.246;9.100;2023-04-25T13:22:57;12.10;99.90
14119;DHT22;7138;49.246;9.100;2023-04-25T13:25:23;12.60;99.90
14119;DHT22;7138;49.246;9.100;2023-04-25T13:27:50;12.30;99.90
14119;DHT22;7138;49.246;9.100;2023-04-25T13:30:16;12.70;99.90
14119;DHT22;7138;49.246;9.100;2023-04-25T13:32:42;12.50;99.90
14119;DHT22;7138;49.246;9.100;2023-04-25T13:35:09;12.40;99.90
14119;DHT22;7138;49.246;9.100;2023-04-25T13:37:37;12.30;99.90
14119;DHT22;7138;49.246;9.100;2023-04-25T13:40:05;12.60;99.90
14119;DHT22;7138;49.246;9.100;2023-04-25T13:42:34;12.70;99.90
14119;DHT22;7138;49.246;9.100;2023-04-25T13:45:02;12.40;99.90
14119;DHT22;7138;49.246;9.100;2023-04-25T13:47:29;12.20;99.90
14119;DHT22;7138;49.246;9.100;2023-04-25T13:49:55;12.20;99.90
14119;DHT22;7138;49.246;9.100;2023-04-25T13:52:22;12.10;99.90
14119;DHT22;7138;49.246;9.100;2023-04-25T13:54:49;12.10;99.90
14119;DHT22;7138;49.246;9.100;2023-04-25T13:57:15;12.00;99.90
14119;DHT22;7138;49.246;9.100;2023-04-25T13:59:41;12.30;99.90
14119;DHT22;7138;49.246;9.100;2023-04-25T14:02:09;12.20;99.90
14119;DHT22;7138;49.246;9.100;2023-04-25T14:04:35;11.90;99.90
14119;DHT22;7138;49.246;9.100;2023-04-25T14:07:02;12.00;99.90
14119;DHT22;7138;49.246;9.100;2023-04-25T14:09:28;12.00;99.90
14119;DHT22;7138;49.246;9.100;2023-04-25T14:11:55;12.30;99.90
14119;DHT22;7138;49.246;9.100;2023-04-25T14:14:22;13.20;99.90
14119;DHT22;7138;49.246;9.100;2023-04-25T14:16:49;13.20;99.90
14119;DHT22;7138;49.246;9.100;2023-04-25T14:19:17;13.10;99.90
14119;DHT22;7138;49.246;9.100;2023-04-25T14:21:43;13.00;99.90
14119;DHT22;7138;49.246;9.100;2023-04-25T14:24:09;13.10;99.90
14119;DHT22;7138;49.246;9.100;2023-04-25T14:26:36;13.00;99.90
14119;DHT22;7138;49.246;9.100;2023-04-25T14:29:03;12.60;99.90
14119;DHT22;7138;49.246;9.100;2023-04-25T14:31:31;12.30;99.90
14119;DHT22;7138;49.246;9.100;2023-04-25T14:33:56;12.20;99.90
14119;DHT22;7138;49.246;9.100;2023-04-25T14:36:24;12.20;99.90
14119;DHT22;7138;49.246;9.100;2023-04-25T14:38:51;12.50;99.90
14119;DHT22;7138;49.246;9.100;2023-04-25T14:41:17;12.70;99.90
14119;DHT22;7138;49.246;9.100;2023-04-25T14:43:43;12.20;99.90
14119;DHT22;7138;49.246;9.100;2023-04-25T14:46:10;12.10;99.90
14119;DHT22;7138;49.246;9.100;2023-04-25T14:48:37;12.50;99.90
14119;DHT22;7138;49.246;9.100;2023-04-25T14:51:03;12.60;99.90
14119;DHT22;7138;49.246;9.100;2023-04-25T14:53:31;12.60;99.90
14119;DHT22;7138;49.246;9.100;2023-04-25T14:55:57;12.40;99.90
14119;DHT22;7138;49.246;9.100;2023-04-25T14:58:23;12.20;99.90
14119;DHT22;7138;49.246;9.100;2023-04-25T15:00:49;12.00;99.90
14119;DHT22;7138;49.246;9.100;2023-04-25T15:03:16;11.80;99.90
14119;DHT22;7138;49.246;9.100;2023-04-25T15:05:42;11.70;99.90
14119;DHT22;7138;49.246;9.100;2023-04-25T15:08:09;12.00;99.90
14119;DHT22;7138;49.246;9.100;2023-04-25T15:10:37;12.50;99.90
14119;DHT22;7138;49.246;9.100;2023-04-25T15:13:03;12.40;99.90
14119;DHT22;7138;49.246;9.100;2023-04-25T15:15:29;12.40;99.90
14119;DHT22;7138;49.246;9.100;2023-04-25T15:17:56;12.30;99.90
14119;DHT22;7138;49.246;9.100;2023-04-25T15:20:22;12.10;99.90
14119;DHT22;7138;49.246;9.100;2023-04-25T15:22:48;11.80;99.90
14119;DHT22;7138;49.246;9.100;2023-04-25T15:25:15;11.60;99.90
14119;DHT22;7138;49.246;9.100;2023-04-25T15:27:46;11.50;99.90
14119;DHT22;7138;49.246;9.100;2023-04-25T15:30:14;11.20;99.90
14119;DHT22;7138;49.246;9.100;2023-04-25T15:32:42;11.30;99.90
14119;DHT22;7138;49.246;9.100;2023-04-25T15:35:09;11.40;99.90
14119;DHT22;7138;49.246;9.100;2023-04-25T15:37:36;11.50;99.90
14119;DHT22;7138;49.246;9.100;2023-04-25T15:40:04;11.40;99.90
14119;DHT22;7138;49.246;9.100;2023-04-25T15:42:34;11.40;99.90
14119;DHT22;7138;49.246;9.100;2023-04-25T15:45:02;11.20;99.90
14119;DHT22;7138;49.246;9.100;2023-04-25T15:47:29;11.00;99.90
14119;DHT22;7138;49.246;9.100;2023-04-25T15:49:54;11.00;99.90
14119;DHT22;7138;49.246;9.100;2023-04-25T15:52:20;11.20;99.90